sensor_id;sensor_type;location;lat;lon;timestamp;P1;durP1;ratioP1;P2;durP2;ratioP2
4636;SDS011;2331;48.806;9.140;2023-10-13T00:01:54;8.67;;;4.20;;
4636;SDS011;2331;48.806;9.140;2023-10-13T00:04:23;10.93;;;3.93;;
4636;SDS011;2331;48.806;9.140;2023-10-13T00:06:51;9.17;;;3.70;;
4636;SDS011;2331;48.806;9.140;2023-10-13T00:09:18;9.50;;;4.20;;
4636;SDS011;2331;48.806;9.140;2023-10-13T00:11:50;11.73;;;3.90;;
4636;SDS011;2331;48.806;9.140;2023-10-13T00:14:18;7.03;;;3.43;;
4636;SDS011;2331;48.806;9.140;2023-10-13T00:16:46;8.80;;;4.50;;
4636;SDS011;2331;48.806;9.140;2023-10-13T00:19:28;9.53;;;4.00;;
4636;SDS011;2331;48.806;9.140;2023-10-13T00:22:02;12.17;;;3.30;;
4636;SDS011;2331;48.806;9.140;2023-10-13T00:24:34;8.33;;;4.03;;
4636;SDS011;2331;48.806;9.140;2023-10-13T00:30:07;7.40;;;3.23;;
4636;SDS011;2331;48.806;9.140;2023-10-13T00:32:47;9.93;;;4.50;;
4636;SDS011;2331;48.806;9.140;2023-10-13T00:35:21;12.07;;;4.00;;
4636;SDS011;2331;48.806;9.140;2023-10-13T00:37:53;5.23;;;2.80;;
4636;SDS011;2331;48.806;9.140;2023-10-13T00:40:20;8.23;;;4.10;;
4636;SDS011;2331;48.806;9.140;2023-10-13T00:43:06;10.93;;;4.20;;
4636;SDS011;2331;48.806;9.140;2023-10-13T00:45:48;9.70;;;4.00;;
4636;SDS011;2331;48.806;9.140;2023-10-13T00:48:22;7.67;;;3.67;;
4636;SDS011;2331;48.806;9.140;2023-10-13T00:50:55;6.60;;;3.43;;
4636;SDS011;2331;48.806;9.140;2023-10-13T00:53:24;10.63;;;4.10;;
4636;SDS011;2331;48.806;9.140;2023-10-13T00:55:53;8.40;;;4.10;;
4636;SDS011;2331;48.806;9.140;2023-10-13T00:58:21;10.23;;;4.17;;
4636;SDS011;2331;48.806;9.140;2023-10-13T01:00:50;9.73;;;4.63;;
4636;SDS011;2331;48.806;9.140;2023-10-13T01:03:25;8.90;;;3.63;;
4636;SDS011;2331;48.806;9.140;2023-10-13T01:05:54;8.20;;;4.10;;
4636;SDS011;2331;48.806;9.140;2023-10-13T01:08:32;8.80;;;3.97;;
4636;SDS011;2331;48.806;9.140;2023-10-13T01:11:03;11.63;;;4.03;;
4636;SDS011;2331;48.806;9.140;2023-10-13T01:13:31;15.33;;;4.63;;
4636;SDS011;2331;48.806;9.140;2023-10-13T01:16:01;8.70;;;3.40;;
4636;SDS011;2331;48.806;9.140;2023-10-13T01:18:27;10.80;;;3.60;;
4636;SDS011;2331;48.806;9.140;2023-10-13T01:20:56;5.20;;;3.40;;
4636;SDS011;2331;48.806;9.140;2023-10-13T01:23:26;8.47;;;4.20;;
4636;SDS011;2331;48.806;9.140;2023-10-13T01:26:03;24.97;;;5.03;;
4636;SDS011;2331;48.806;9.140;2023-10-13T01:28:30;7.73;;;3.73;;
4636;SDS011;2331;48.806;9.140;2023-10-13T01:31:09;9.53;;;3.80;;
4636;SDS011;2331;48.806;9.140;2023-10-13T01:33:36;10.03;;;4.13;;
4636;SDS011;2331;48.806;9.140;2023-10-13T01:36:03;15.50;;;4.63;;
4636;SDS011;2331;48.806;9.140;2023-10-13T01:38:33;8.43;;;4.27;;
4636;SDS011;2331;48.806;9.140;2023-10-13T01:41:04;6.03;;;3.57;;
4636;SDS011;2331;48.806;9.140;2023-10-13T01:43:30;8.67;;;3.67;;
4636;SDS011;2331;48.806;9.140;2023-10-13T01:45:57;7.33;;;4.10;;
4636;SDS011;2331;48.806;9.140;2023-10-13T01:48:23;9.57;;;3.87;;
4636;SDS011;2331;48.806;9.140;2023-10-13T01:50:49;6.93;;;3.63;;
4636;SDS011;2331;48.806;9.140;2023-10-13T01:53:20;11.23;;;4.23;;
4636;SDS011;2331;48.806;9.140;2023-10-13T01:55:49;8.70;;;3.83;;
4636;SDS011;2331;48.806;9.140;2023-10-13T01:58:15;7.83;;;4.00;;
4636;SDS011;2331;48.806;9.140;2023-10-13T02:00:43;13.63;;;4.20;;
4636;SDS011;2331;48.806;9.140;2023-10-13T02:03:11;9.73;;;4.20;;
4636;SDS011;2331;48.806;9.140;2023-10-13T02:05:41;11.33;;;4.10;;
4636;SDS011;2331;48.806;9.140;2023-10-13T02:08:11;6.73;;;3.70;;
4636;SDS011;2331;48.806;9.140;2023-10-13T02:10:51;8.37;;;4.13;;
4636;SDS011;2331;48.806;9.140;2023-10-13T02:13:19;10.83;;;4.00;;
4636;SDS011;2331;48.806;9.140;2023-10-13T02:15:47;11.40;;;4.00;;
4636;SDS011;2331;48.806;9.140;2023-10-13T02:18:14;5.43;;;3.40;;
4636;SDS011;2331;48.806;9.140;2023-10-13T02:20:46;11.00;;;4.00;;
4636;SDS011;2331;48.806;9.140;2023-10-13T02:23:19;9.30;;;4.47;;
4636;SDS011;2331;48.806;9.140;2023-10-13T02:25:46;8.90;;;3.53;;
4636;SDS011;2331;48.806;9.140;2023-10-13T02:28:13;7.30;;;3.63;;
4636;SDS011;2331;48.806;9.140;2023-10-13T02:30:46;7.47;;;4.10;;
4636;SDS011;2331;48.806;9.140;2023-10-13T02:33:15;9.63;;;3.90;;
4636;SDS011;2331;48.806;9.140;2023-10-13T02:35:46;14.27;;;4.90;;
4636;SDS011;2331;48.806;9.140;2023-10-13T02:38:18;8.50;;;4.23;;
4636;SDS011;2331;48.806;9.140;2023-10-13T02:40:52;8.00;;;4.17;;
4636;SDS011;2331;48.806;9.140;2023-10-13T02:43:20;8.13;;;4.17;;
4636;SDS011;2331;48.806;9.140;2023-10-13T02:45:56;9.20;;;4.10;;
4636;SDS011;2331;48.806;9.140;2023-10-13T02:48:24;7.17;;;4.17;;
4636;SDS011;2331;48.806;9.140;2023-10-13T02:50:56;6.57;;;3.77;;
4636;SDS011;2331;48.806;9.140;2023-10-13T02:53:27;10.93;;;4.40;;
4636;SDS011;2331;48.806;9.140;2023-10-13T02:55:54;7.80;;;3.77;;
4636;SDS011;2331;48.806;9.140;2023-10-13T02:58:26;8.10;;;3.80;;
4636;SDS011;2331;48.806;9.140;2023-10-13T03:01:04;8.37;;;3.47;;
4636;SDS011;2331;48.806;9.140;2023-10-13T03:03:41;17.27;;;4.47;;
4636;SDS011;2331;48.806;9.140;2023-10-13T03:06:15;10.50;;;4.60;;
4636;SDS011;2331;48.806;9.140;2023-10-13T03:08:41;10.07;;;3.50;;
4636;SDS011;2331;48.806;9.140;2023-10-13T03:11:09;6.47;;;3.63;;
4636;SDS011;2331;48.806;9.140;2023-10-13T03:13:37;9.20;;;4.67;;
4636;SDS011;2331;48.806;9.140;2023-10-13T03:16:12;8.77;;;4.03;;
4636;SDS011;2331;48.806;9.140;2023-10-13T03:18:41;13.37;;;4.20;;
4636;SDS011;2331;48.806;9.140;2023-10-13T03:21:16;14.33;;;4.97;;
4636;SDS011;2331;48.806;9.140;2023-10-13T03:23:53;11.07;;;4.63;;
4636;SDS011;2331;48.806;9.140;2023-10-13T03:26:20;7.90;;;3.83;;
4636;SDS011;2331;48.806;9.140;2023-10-13T03:28:48;9.27;;;3.83;;
4636;SDS011;2331;48.806;9.140;2023-10-13T03:31:17;6.33;;;3.67;;
4636;SDS011;2331;48.806;9.140;2023-10-13T03:33:50;6.17;;;3.70;;
4636;SDS011;2331;48.806;9.140;2023-10-13T03:36:22;8.73;;;4.03;;
4636;SDS011;2331;48.806;9.140;2023-10-13T03:39:21;9.80;;;3.80;;
4636;SDS011;2331;48.806;9.140;2023-10-13T03:41:55;9.13;;;4.33;;
4636;SDS011;2331;48.806;9.140;2023-10-13T03:44:25;7.97;;;3.50;;
4636;SDS011;2331;48.806;9.140;2023-10-13T03:46:55;8.60;;;4.03;;
4636;SDS011;2331;48.806;9.140;2023-10-13T03:49:26;6.80;;;3.67;;
4636;SDS011;2331;48.806;9.140;2023-10-13T03:51:54;7.93;;;3.67;;
4636;SDS011;2331;48.806;9.140;2023-10-13T03:54:22;7.07;;;3.47;;
4636;SDS011;2331;48.806;9.140;2023-10-13T03:56:49;9.60;;;4.17;;
4636;SDS011;2331;48.806;9.140;2023-10-13T03:59:17;7.13;;;3.83;;
4636;SDS011;2331;48.806;9.140;2023-10-13T04:01:46;6.73;;;3.90;;
4636;SDS011;2331;48.806;9.140;2023-10-13T04:04:23;11.00;;;4.10;;
4636;SDS011;2331;48.806;9.140;2023-10-13T04:06:59;11.47;;;4.10;;
4636;SDS011;2331;48.806;9.140;2023-10-13T04:09:59;8.27;;;3.53;;
4636;SDS011;2331;48.806;9.140;2023-10-13T04:12:43;8.90;;;4.00;;
4636;SDS011;2331;48.806;9.140;2023-10-13T04:15:27;10.00;;;4.37;;
4636;SDS011;2331;48.806;9.140;2023-10-13T04:18:06;9.87;;;4.00;;
4636;SDS011;2331;48.806;9.140;2023-10-13T04:20:55;8.27;;;4.03;;
4636;SDS011;2331;48.806;9.140;2023-10-13T04:23:33;10.30;;;4.80;;
4636;SDS011;2331;48.806;9.140;2023-10-13T04:26:20;11.00;;;4.20;;
4636;SDS011;2331;48.806;9.140;2023-10-13T04:28:46;17.17;;;4.90;;
4636;SDS011;2331;48.806;9.140;2023-10-13T04:31:21;9.07;;;3.70;;
4636;SDS011;2331;48.806;9.140;2023-10-13T04:34:11;10.40;;;4.33;;
4636;SDS011;2331;48.806;9.140;2023-10-13T04:36:53;8.13;;;3.83;;
4636;SDS011;2331;48.806;9.140;2023-10-13T04:39:41;14.70;;;3.97;;
4636;SDS011;2331;48.806;9.140;2023-10-13T04:42:08;7.85;;;4.03;;
4636;SDS011;2331;48.806;9.140;2023-10-13T04:44:51;8.98;;;4.22;;
4636;SDS011;2331;48.806;9.140;2023-10-13T04:47:21;8.67;;;3.90;;
4636;SDS011;2331;48.806;9.140;2023-10-13T04:49:49;7.67;;;4.03;;
4636;SDS011;2331;48.806;9.140;2023-10-13T04:52:17;9.68;;;4.28;;
4636;SDS011;2331;48.806;9.140;2023-10-13T04:55:04;9.40;;;4.80;;
4636;SDS011;2331;48.806;9.140;2023-10-13T04:58:08;7.50;;;3.80;;
4636;SDS011;2331;48.806;9.140;2023-10-13T05:01:01;9.55;;;4.32;;
4636;SDS011;2331;48.806;9.140;2023-10-13T05:04:04;15.23;;;3.57;;
4636;SDS011;2331;48.806;9.140;2023-10-13T05:06:56;7.93;;;4.03;;
4636;SDS011;2331;48.806;9.140;2023-10-13T05:09:40;8.32;;;3.92;;
4636;SDS011;2331;48.806;9.140;2023-10-13T05:12:25;9.07;;;3.40;;
4636;SDS011;2331;48.806;9.140;2023-10-13T05:15:05;5.95;;;3.85;;
4636;SDS011;2331;48.806;9.140;2023-10-13T05:17:50;5.70;;;3.35;;
4636;SDS011;2331;48.806;9.140;2023-10-13T05:20:34;11.32;;;3.80;;
4636;SDS011;2331;48.806;9.140;2023-10-13T05:23:20;10.82;;;4.20;;
4636;SDS011;2331;48.806;9.140;2023-10-13T05:26:09;8.00;;;4.10;;
4636;SDS011;2331;48.806;9.140;2023-10-13T05:28:53;9.30;;;4.50;;
4636;SDS011;2331;48.806;9.140;2023-10-13T05:31:38;7.20;;;3.50;;
4636;SDS011;2331;48.806;9.140;2023-10-13T05:34:22;10.10;;;4.10;;
4636;SDS011;2331;48.806;9.140;2023-10-13T05:37:06;6.43;;;3.70;;
4636;SDS011;2331;48.806;9.140;2023-10-13T05:39:51;6.73;;;3.70;;
4636;SDS011;2331;48.806;9.140;2023-10-13T05:42:36;7.67;;;4.13;;
4636;SDS011;2331;48.806;9.140;2023-10-13T05:45:20;10.20;;;3.77;;
4636;SDS011;2331;48.806;9.140;2023-10-13T05:48:02;13.75;;;4.60;;
4636;SDS011;2331;48.806;9.140;2023-10-13T05:50:30;5.70;;;3.80;;
4636;SDS011;2331;48.806;9.140;2023-10-13T05:53:35;9.10;;;3.70;;
4636;SDS011;2331;48.806;9.140;2023-10-13T05:56:21;15.07;;;3.92;;
4636;SDS011;2331;48.806;9.140;2023-10-13T05:59:05;8.90;;;3.67;;
4636;SDS011;2331;48.806;9.140;2023-10-13T06:01:50;6.97;;;3.75;;
4636;SDS011;2331;48.806;9.140;2023-10-13T06:04:34;10.30;;;4.20;;
4636;SDS011;2331;48.806;9.140;2023-10-13T06:07:18;12.80;;;4.45;;
4636;SDS011;2331;48.806;9.140;2023-10-13T06:10:03;7.90;;;4.13;;
4636;SDS011;2331;48.806;9.140;2023-10-13T06:12:49;10.83;;;4.03;;
4636;SDS011;2331;48.806;9.140;2023-10-13T06:15:35;9.68;;;4.07;;
4636;SDS011;2331;48.806;9.140;2023-10-13T06:18:20;8.68;;;4.22;;
4636;SDS011;2331;48.806;9.140;2023-10-13T06:21:04;11.50;;;3.80;;
4636;SDS011;2331;48.806;9.140;2023-10-13T06:23:48;6.38;;;4.03;;
4636;SDS011;2331;48.806;9.140;2023-10-13T06:26:33;9.32;;;4.45;;
4636;SDS011;2331;48.806;9.140;2023-10-13T06:29:18;7.20;;;3.55;;
4636;SDS011;2331;48.806;9.140;2023-10-13T06:31:46;7.85;;;4.20;;
4636;SDS011;2331;48.806;9.140;2023-10-13T06:34:14;9.02;;;3.70;;
4636;SDS011;2331;48.806;9.140;2023-10-13T06:36:40;7.13;;;3.47;;
4636;SDS011;2331;48.806;9.140;2023-10-13T06:39:11;9.02;;;4.10;;
4636;SDS011;2331;48.806;9.140;2023-10-13T06:42:00;20.92;;;6.22;;
4636;SDS011;2331;48.806;9.140;2023-10-13T06:44:29;11.05;;;4.95;;
4636;SDS011;2331;48.806;9.140;2023-10-13T06:46:57;7.78;;;3.60;;
4636;SDS011;2331;48.806;9.140;2023-10-13T06:49:24;8.27;;;4.03;;
4636;SDS011;2331;48.806;9.140;2023-10-13T06:51:54;6.00;;;3.70;;
4636;SDS011;2331;48.806;9.140;2023-10-13T06:54:25;9.32;;;3.95;;
4636;SDS011;2331;48.806;9.140;2023-10-13T06:56:53;10.77;;;4.15;;
4636;SDS011;2331;48.806;9.140;2023-10-13T06:59:20;9.27;;;3.90;;
4636;SDS011;2331;48.806;9.140;2023-10-13T07:01:53;10.38;;;4.47;;
4636;SDS011;2331;48.806;9.140;2023-10-13T07:04:19;7.90;;;4.07;;
4636;SDS011;2331;48.806;9.140;2023-10-13T07:06:47;8.33;;;4.03;;
4636;SDS011;2331;48.806;9.140;2023-10-13T07:09:15;6.57;;;4.05;;
4636;SDS011;2331;48.806;9.140;2023-10-13T07:12:05;7.68;;;3.88;;
4636;SDS011;2331;48.806;9.140;2023-10-13T07:14:32;8.17;;;4.17;;
4636;SDS011;2331;48.806;9.140;2023-10-13T07:17:02;10.23;;;4.28;;
4636;SDS011;2331;48.806;9.140;2023-10-13T07:19:31;9.40;;;4.40;;
4636;SDS011;2331;48.806;9.140;2023-10-13T07:21:59;13.85;;;4.90;;
4636;SDS011;2331;48.806;9.140;2023-10-13T07:24:28;10.40;;;4.57;;
4636;SDS011;2331;48.806;9.140;2023-10-13T07:26:57;11.48;;;5.13;;
4636;SDS011;2331;48.806;9.140;2023-10-13T07:29:29;12.77;;;4.45;;
4636;SDS011;2331;48.806;9.140;2023-10-13T07:31:59;10.43;;;4.23;;
4636;SDS011;2331;48.806;9.140;2023-10-13T07:34:29;10.13;;;4.27;;
4636;SDS011;2331;48.806;9.140;2023-10-13T07:36:57;10.07;;;4.45;;
4636;SDS011;2331;48.806;9.140;2023-10-13T07:39:25;9.57;;;4.72;;
4636;SDS011;2331;48.806;9.140;2023-10-13T07:41:58;11.05;;;4.40;;
4636;SDS011;2331;48.806;9.140;2023-10-13T07:44:33;19.17;;;4.87;;
4636;SDS011;2331;48.806;9.140;2023-10-13T07:47:02;8.18;;;4.20;;
4636;SDS011;2331;48.806;9.140;2023-10-13T07:49:35;8.33;;;4.90;;
4636;SDS011;2331;48.806;9.140;2023-10-13T07:52:05;8.98;;;4.72;;
4636;SDS011;2331;48.806;9.140;2023-10-13T07:54:51;9.90;;;3.57;;
4636;SDS011;2331;48.806;9.140;2023-10-13T07:57:25;13.73;;;4.40;;
4636;SDS011;2331;48.806;9.140;2023-10-13T07:59:54;8.70;;;3.75;;
4636;SDS011;2331;48.806;9.140;2023-10-13T08:02:31;7.35;;;4.00;;
4636;SDS011;2331;48.806;9.140;2023-10-13T08:05:15;9.90;;;3.27;;
4636;SDS011;2331;48.806;9.140;2023-10-13T08:07:50;8.27;;;3.30;;
4636;SDS011;2331;48.806;9.140;2023-10-13T08:10:18;8.47;;;4.17;;
4636;SDS011;2331;48.806;9.140;2023-10-13T08:12:50;9.60;;;3.73;;
4636;SDS011;2331;48.806;9.140;2023-10-13T08:15:17;8.70;;;3.40;;
4636;SDS011;2331;48.806;9.140;2023-10-13T08:17:57;14.27;;;3.53;;
4636;SDS011;2331;48.806;9.140;2023-10-13T08:20:29;8.50;;;3.97;;
4636;SDS011;2331;48.806;9.140;2023-10-13T08:23:03;9.93;;;3.50;;
4636;SDS011;2331;48.806;9.140;2023-10-13T08:25:38;8.50;;;4.00;;
4636;SDS011;2331;48.806;9.140;2023-10-13T08:28:19;13.80;;;3.70;;
4636;SDS011;2331;48.806;9.140;2023-10-13T08:31:04;8.00;;;3.60;;
4636;SDS011;2331;48.806;9.140;2023-10-13T08:33:39;11.87;;;3.67;;
4636;SDS011;2331;48.806;9.140;2023-10-13T08:36:13;7.93;;;4.07;;
4636;SDS011;2331;48.806;9.140;2023-10-13T08:38:54;10.70;;;3.50;;
4636;SDS011;2331;48.806;9.140;2023-10-13T08:41:21;12.83;;;3.33;;
4636;SDS011;2331;48.806;9.140;2023-10-13T08:43:54;13.77;;;3.50;;
4636;SDS011;2331;48.806;9.140;2023-10-13T08:46:30;8.10;;;3.90;;
4636;SDS011;2331;48.806;9.140;2023-10-13T08:49:16;9.10;;;3.97;;
4636;SDS011;2331;48.806;9.140;2023-10-13T08:51:49;16.97;;;4.10;;
4636;SDS011;2331;48.806;9.140;2023-10-13T08:54:30;7.13;;;3.53;;
4636;SDS011;2331;48.806;9.140;2023-10-13T08:57:11;7.93;;;3.13;;
4636;SDS011;2331;48.806;9.140;2023-10-13T08:59:58;6.43;;;2.80;;
4636;SDS011;2331;48.806;9.140;2023-10-13T09:02:45;8.87;;;3.17;;
4636;SDS011;2331;48.806;9.140;2023-10-13T09:05:41;13.90;;;3.80;;
4636;SDS011;2331;48.806;9.140;2023-10-13T09:08:27;9.90;;;3.23;;
4636;SDS011;2331;48.806;9.140;2023-10-13T09:11:01;10.83;;;3.40;;
4636;SDS011;2331;48.806;9.140;2023-10-13T09:13:36;10.57;;;3.40;;
4636;SDS011;2331;48.806;9.140;2023-10-13T09:16:09;11.70;;;3.60;;
4636;SDS011;2331;48.806;9.140;2023-10-13T09:18:41;10.00;;;3.40;;
4636;SDS011;2331;48.806;9.140;2023-10-13T09:21:11;9.60;;;3.40;;
4636;SDS011;2331;48.806;9.140;2023-10-13T09:24:10;14.23;;;3.57;;
4636;SDS011;2331;48.806;9.140;2023-10-13T09:26:54;8.90;;;3.30;;
4636;SDS011;2331;48.806;9.140;2023-10-13T09:29:22;8.37;;;3.60;;
4636;SDS011;2331;48.806;9.140;2023-10-13T09:31:58;9.30;;;3.80;;
4636;SDS011;2331;48.806;9.140;2023-10-13T09:34:27;10.07;;;3.37;;
4636;SDS011;2331;48.806;9.140;2023-10-13T09:36:56;10.50;;;3.50;;
4636;SDS011;2331;48.806;9.140;2023-10-13T09:39:25;10.13;;;3.27;;
4636;SDS011;2331;48.806;9.140;2023-10-13T09:42:09;9.13;;;3.30;;
4636;SDS011;2331;48.806;9.140;2023-10-13T09:44:37;6.23;;;2.87;;
4636;SDS011;2331;48.806;9.140;2023-10-13T09:47:05;6.43;;;3.00;;
4636;SDS011;2331;48.806;9.140;2023-10-13T09:49:43;11.03;;;3.60;;
4636;SDS011;2331;48.806;9.140;2023-10-13T09:52:14;10.77;;;4.33;;
4636;SDS011;2331;48.806;9.140;2023-10-13T09:57:38;10.33;;;3.40;;
4636;SDS011;2331;48.806;9.140;2023-10-13T10:00:14;6.80;;;3.37;;
4636;SDS011;2331;48.806;9.140;2023-10-13T10:03:09;8.80;;;3.63;;
4636;SDS011;2331;48.806;9.140;2023-10-13T10:05:56;6.77;;;3.10;;
4636;SDS011;2331;48.806;9.140;2023-10-13T10:08:30;7.90;;;3.43;;
4636;SDS011;2331;48.806;9.140;2023-10-13T10:11:04;10.27;;;3.60;;
4636;SDS011;2331;48.806;9.140;2023-10-13T10:13:47;6.93;;;2.83;;
4636;SDS011;2331;48.806;9.140;2023-10-13T10:16:27;13.23;;;3.30;;
4636;SDS011;2331;48.806;9.140;2023-10-13T10:19:02;15.87;;;3.13;;
4636;SDS011;2331;48.806;9.140;2023-10-13T10:21:33;8.03;;;3.00;;
4636;SDS011;2331;48.806;9.140;2023-10-13T10:24:00;5.77;;;3.17;;
4636;SDS011;2331;48.806;9.140;2023-10-13T10:26:50;8.80;;;2.93;;
4636;SDS011;2331;48.806;9.140;2023-10-13T10:29:18;13.10;;;3.50;;
4636;SDS011;2331;48.806;9.140;2023-10-13T10:31:44;10.80;;;3.30;;
4636;SDS011;2331;48.806;9.140;2023-10-13T10:34:13;8.70;;;2.90;;
4636;SDS011;2331;48.806;9.140;2023-10-13T10:36:44;8.77;;;3.53;;
4636;SDS011;2331;48.806;9.140;2023-10-13T10:39:13;7.03;;;3.00;;
4636;SDS011;2331;48.806;9.140;2023-10-13T10:41:42;11.60;;;3.57;;
4636;SDS011;2331;48.806;9.140;2023-10-13T10:44:18;9.17;;;3.03;;
4636;SDS011;2331;48.806;9.140;2023-10-13T10:47:08;15.47;;;4.13;;
4636;SDS011;2331;48.806;9.140;2023-10-13T10:49:44;8.80;;;3.07;;
4636;SDS011;2331;48.806;9.140;2023-10-13T10:52:12;12.00;;;3.20;;
4636;SDS011;2331;48.806;9.140;2023-10-13T10:54:44;8.23;;;3.40;;
4636;SDS011;2331;48.806;9.140;2023-10-13T10:57:17;8.23;;;3.30;;
4636;SDS011;2331;48.806;9.140;2023-10-13T10:59:45;7.63;;;3.20;;
4636;SDS011;2331;48.806;9.140;2023-10-13T11:02:17;11.57;;;3.17;;
4636;SDS011;2331;48.806;9.140;2023-10-13T11:04:52;11.00;;;3.47;;
4636;SDS011;2331;48.806;9.140;2023-10-13T11:07:21;14.10;;;3.57;;
4636;SDS011;2331;48.806;9.140;2023-10-13T11:09:48;7.70;;;3.00;;
4636;SDS011;2331;48.806;9.140;2023-10-13T11:12:18;7.90;;;3.37;;
4636;SDS011;2331;48.806;9.140;2023-10-13T11:15:01;8.90;;;3.20;;
4636;SDS011;2331;48.806;9.140;2023-10-13T11:17:38;10.57;;;3.43;;
4636;SDS011;2331;48.806;9.140;2023-10-13T11:20:08;9.20;;;3.40;;
4636;SDS011;2331;48.806;9.140;2023-10-13T11:22:45;10.20;;;3.37;;
4636;SDS011;2331;48.806;9.140;2023-10-13T11:25:19;7.00;;;3.07;;
4636;SDS011;2331;48.806;9.140;2023-10-13T11:27:48;7.90;;;2.90;;
4636;SDS011;2331;48.806;9.140;2023-10-13T11:30:23;7.80;;;3.13;;
4636;SDS011;2331;48.806;9.140;2023-10-13T11:33:01;11.97;;;3.30;;
4636;SDS011;2331;48.806;9.140;2023-10-13T11:35:30;10.33;;;3.20;;
4636;SDS011;2331;48.806;9.140;2023-10-13T11:38:11;7.90;;;2.80;;
4636;SDS011;2331;48.806;9.140;2023-10-13T11:40:39;11.63;;;3.40;;
4636;SDS011;2331;48.806;9.140;2023-10-13T11:43:31;12.27;;;3.80;;
4636;SDS011;2331;48.806;9.140;2023-10-13T11:46:06;8.23;;;3.00;;
4636;SDS011;2331;48.806;9.140;2023-10-13T11:48:40;8.27;;;3.40;;
4636;SDS011;2331;48.806;9.140;2023-10-13T11:51:07;8.27;;;2.90;;
4636;SDS011;2331;48.806;9.140;2023-10-13T11:53:42;20.37;;;3.70;;
4636;SDS011;2331;48.806;9.140;2023-10-13T11:56:08;8.17;;;3.23;;
4636;SDS011;2331;48.806;9.140;2023-10-13T11:58:35;7.40;;;2.90;;
4636;SDS011;2331;48.806;9.140;2023-10-13T12:01:02;14.63;;;2.90;;
4636;SDS011;2331;48.806;9.140;2023-10-13T12:03:47;11.07;;;3.37;;
4636;SDS011;2331;48.806;9.140;2023-10-13T12:06:32;7.90;;;3.30;;
4636;SDS011;2331;48.806;9.140;2023-10-13T12:09:12;15.50;;;3.03;;
4636;SDS011;2331;48.806;9.140;2023-10-13T12:11:57;10.13;;;3.70;;
4636;SDS011;2331;48.806;9.140;2023-10-13T12:14:25;12.60;;;3.43;;
4636;SDS011;2331;48.806;9.140;2023-10-13T12:16:55;7.67;;;3.20;;
4636;SDS011;2331;48.806;9.140;2023-10-13T12:19:30;10.20;;;3.80;;
4636;SDS011;2331;48.806;9.140;2023-10-13T12:21:57;6.90;;;3.20;;
4636;SDS011;2331;48.806;9.140;2023-10-13T12:24:29;6.90;;;2.93;;
4636;SDS011;2331;48.806;9.140;2023-10-13T12:27:05;10.13;;;3.50;;
4636;SDS011;2331;48.806;9.140;2023-10-13T12:29:44;8.30;;;2.93;;
4636;SDS011;2331;48.806;9.140;2023-10-13T12:32:12;12.37;;;3.63;;
4636;SDS011;2331;48.806;9.140;2023-10-13T12:34:41;10.60;;;3.40;;
4636;SDS011;2331;48.806;9.140;2023-10-13T12:37:25;14.60;;;3.90;;
4636;SDS011;2331;48.806;9.140;2023-10-13T12:40:15;13.90;;;4.13;;
4636;SDS011;2331;48.806;9.140;2023-10-13T12:43:00;10.70;;;3.43;;
4636;SDS011;2331;48.806;9.140;2023-10-13T12:45:45;9.93;;;3.20;;
4636;SDS011;2331;48.806;9.140;2023-10-13T12:48:31;8.10;;;3.40;;
4636;SDS011;2331;48.806;9.140;2023-10-13T12:51:17;9.73;;;3.50;;
4636;SDS011;2331;48.806;9.140;2023-10-13T12:54:05;8.60;;;3.70;;
4636;SDS011;2331;48.806;9.140;2023-10-13T12:56:39;12.70;;;3.37;;
4636;SDS011;2331;48.806;9.140;2023-10-13T12:59:07;12.10;;;3.50;;
4636;SDS011;2331;48.806;9.140;2023-10-13T13:01:34;7.20;;;3.33;;
4636;SDS011;2331;48.806;9.140;2023-10-13T13:04:07;14.10;;;3.17;;
4636;SDS011;2331;48.806;9.140;2023-10-13T13:06:38;7.67;;;3.10;;
4636;SDS011;2331;48.806;9.140;2023-10-13T13:09:05;14.23;;;3.40;;
4636;SDS011;2331;48.806;9.140;2023-10-13T13:11:34;10.40;;;2.80;;
4636;SDS011;2331;48.806;9.140;2023-10-13T13:14:04;9.13;;;3.50;;
4636;SDS011;2331;48.806;9.140;2023-10-13T13:16:33;9.27;;;3.57;;
4636;SDS011;2331;48.806;9.140;2023-10-13T13:19:00;8.77;;;2.60;;
4636;SDS011;2331;48.806;9.140;2023-10-13T13:21:35;8.23;;;3.10;;
4636;SDS011;2331;48.806;9.140;2023-10-13T13:24:03;7.57;;;3.10;;
4636;SDS011;2331;48.806;9.140;2023-10-13T13:26:35;7.03;;;3.47;;
4636;SDS011;2331;48.806;9.140;2023-10-13T13:29:05;9.87;;;3.40;;
4636;SDS011;2331;48.806;9.140;2023-10-13T13:31:34;10.00;;;3.37;;
4636;SDS011;2331;48.806;9.140;2023-10-13T13:34:06;9.27;;;3.27;;
4636;SDS011;2331;48.806;9.140;2023-10-13T13:36:34;6.10;;;2.60;;
4636;SDS011;2331;48.806;9.140;2023-10-13T13:39:02;10.40;;;3.20;;
4636;SDS011;2331;48.806;9.140;2023-10-13T13:41:31;6.50;;;3.47;;
4636;SDS011;2331;48.806;9.140;2023-10-13T13:43:58;11.70;;;3.40;;
4636;SDS011;2331;48.806;9.140;2023-10-13T13:46:38;17.83;;;3.23;;
4636;SDS011;2331;48.806;9.140;2023-10-13T13:49:07;8.43;;;3.37;;
4636;SDS011;2331;48.806;9.140;2023-10-13T13:51:43;6.43;;;3.07;;
4636;SDS011;2331;48.806;9.140;2023-10-13T13:54:17;8.17;;;2.80;;
4636;SDS011;2331;48.806;9.140;2023-10-13T13:56:45;9.83;;;3.03;;
4636;SDS011;2331;48.806;9.140;2023-10-13T13:59:12;6.83;;;3.13;;
4636;SDS011;2331;48.806;9.140;2023-10-13T14:01:43;5.00;;;2.67;;
4636;SDS011;2331;48.806;9.140;2023-10-13T14:04:10;7.10;;;3.00;;
4636;SDS011;2331;48.806;9.140;2023-10-13T14:06:39;9.10;;;3.70;;
4636;SDS011;2331;48.806;9.140;2023-10-13T14:09:06;4.90;;;2.80;;
4636;SDS011;2331;48.806;9.140;2023-10-13T14:11:42;13.07;;;3.20;;
4636;SDS011;2331;48.806;9.140;2023-10-13T14:14:26;6.80;;;3.10;;
4636;SDS011;2331;48.806;9.140;2023-10-13T14:16:58;5.00;;;3.00;;
4636;SDS011;2331;48.806;9.140;2023-10-13T14:19:32;9.17;;;3.10;;
4636;SDS011;2331;48.806;9.140;2023-10-13T14:21:59;11.47;;;3.60;;
4636;SDS011;2331;48.806;9.140;2023-10-13T14:24:31;11.37;;;3.50;;
4636;SDS011;2331;48.806;9.140;2023-10-13T14:27:02;9.87;;;3.43;;
4636;SDS011;2331;48.806;9.140;2023-10-13T14:29:34;8.30;;;3.30;;
4636;SDS011;2331;48.806;9.140;2023-10-13T14:32:05;8.47;;;3.23;;
4636;SDS011;2331;48.806;9.140;2023-10-13T14:34:37;6.97;;;3.27;;
4636;SDS011;2331;48.806;9.140;2023-10-13T14:37:04;5.20;;;2.70;;
4636;SDS011;2331;48.806;9.140;2023-10-13T14:39:31;9.13;;;3.17;;
4636;SDS011;2331;48.806;9.140;2023-10-13T14:42:01;7.83;;;2.70;;
4636;SDS011;2331;48.806;9.140;2023-10-13T14:44:30;6.10;;;2.80;;
4636;SDS011;2331;48.806;9.140;2023-10-13T14:46:58;8.43;;;3.07;;
4636;SDS011;2331;48.806;9.140;2023-10-13T14:49:24;6.20;;;3.03;;
4636;SDS011;2331;48.806;9.140;2023-10-13T14:51:51;6.80;;;3.23;;
4636;SDS011;2331;48.806;9.140;2023-10-13T14:54:20;7.73;;;2.90;;
4636;SDS011;2331;48.806;9.140;2023-10-13T14:56:57;3.87;;;2.30;;
4636;SDS011;2331;48.806;9.140;2023-10-13T14:59:26;6.80;;;2.63;;
4636;SDS011;2331;48.806;9.140;2023-10-13T15:01:58;4.70;;;2.70;;
4636;SDS011;2331;48.806;9.140;2023-10-13T15:04:26;7.00;;;2.83;;
4636;SDS011;2331;48.806;9.140;2023-10-13T15:06:53;6.47;;;2.70;;
4636;SDS011;2331;48.806;9.140;2023-10-13T15:09:21;8.47;;;3.00;;
4636;SDS011;2331;48.806;9.140;2023-10-13T15:11:49;5.60;;;2.77;;
4636;SDS011;2331;48.806;9.140;2023-10-13T15:14:18;5.73;;;2.87;;
4636;SDS011;2331;48.806;9.140;2023-10-13T15:16:49;8.23;;;2.87;;
4636;SDS011;2331;48.806;9.140;2023-10-13T15:19:17;8.10;;;2.60;;
4636;SDS011;2331;48.806;9.140;2023-10-13T15:21:44;8.10;;;2.60;;
4636;SDS011;2331;48.806;9.140;2023-10-13T15:24:14;5.90;;;2.90;;
4636;SDS011;2331;48.806;9.140;2023-10-13T15:26:42;7.40;;;3.00;;
4636;SDS011;2331;48.806;9.140;2023-10-13T15:29:13;9.50;;;3.10;;
4636;SDS011;2331;48.806;9.140;2023-10-13T15:31:41;4.00;;;2.33;;
4636;SDS011;2331;48.806;9.140;2023-10-13T15:34:20;12.23;;;2.53;;
4636;SDS011;2331;48.806;9.140;2023-10-13T15:36:48;6.17;;;2.73;;
4636;SDS011;2331;48.806;9.140;2023-10-13T15:39:17;9.73;;;2.63;;
4636;SDS011;2331;48.806;9.140;2023-10-13T15:41:49;7.67;;;2.17;;
4636;SDS011;2331;48.806;9.140;2023-10-13T15:44:17;6.40;;;2.70;;
4636;SDS011;2331;48.806;9.140;2023-10-13T15:46:45;5.63;;;2.60;;
4636;SDS011;2331;48.806;9.140;2023-10-13T15:49:14;8.27;;;2.60;;
4636;SDS011;2331;48.806;9.140;2023-10-13T15:51:42;8.03;;;2.60;;
4636;SDS011;2331;48.806;9.140;2023-10-13T15:54:09;5.20;;;2.40;;
4636;SDS011;2331;48.806;9.140;2023-10-13T15:56:40;6.03;;;2.33;;
4636;SDS011;2331;48.806;9.140;2023-10-13T15:59:06;8.50;;;2.73;;